BKBT2: Red River, Burkburnett

                                SHEF ID:       BKBT2     Red Rv nr Burkburnett, TX
STATION TYPE:
Regulating: Stage = 9.00, Flow = 17010

PRECIP STAGE RIV-FLOW BAT-LOAD
in ft cfs volt
Ccp-Rev Ccp-Rev Ccp-Rev Ccp-Rev
(America/Chicago)
06/12 00:00 ---- 3.36 239 12.61
06/12 01:00 ---- 3.37 242 12.60
06/12 02:00 ---- 3.36 239 12.60
06/12 03:00 ---- 3.33 230 12.59
06/12 04:00 ---- 3.32 227 12.58
06/12 05:00 ---- 3.31 224 12.57
06/12 06:00 ---- 3.29 218 12.57
06/12 07:00 ---- 3.28 215 12.51
06/12 08:00 ---- 3.27 212 12.53
06/12 09:00 ---- 3.26 209 13.09
06/12 10:00 ---- 3.20 193 13.62
06/12 11:00 ---- 3.21 195 13.63
06/12 12:00 ---- 3.24 204 13.51
06/12 13:00 ---- 3.21 195 13.57
06/12 14:00 ---- 3.15 179 13.49
06/12 15:00 ---- 3.11 169 13.47
06/12 16:00 ---- 3.14 177 13.51
06/12 17:00 ---- 3.14 177 13.45
06/12 18:00 ---- 3.13 174 13.43
06/12 19:00 ---- 3.13 174 13.36
06/12 20:00 ---- 3.11 169 13.06
06/12 21:00 ---- 3.09 165 12.67
06/12 22:00 ---- ---- ---- ----
06/12 23:00 ---- ---- ---- ----
Data processed at Sat 13Jun2026 02:44 GMT

NOTICE: If you are parsing this page

Please convert to using our Data API. Starting early 2026 we will be migrating to: https://water.usace.army.mil with modern pages rendered in JavaScript. When this migration completes you will no longer be able to scrape this page! CWMSDataAPI (CDA)

Timeseries IDs (TSIDs)

TSIDs used from left to right in the data table
BURK.Precip-Inc.Total.1Hour.1Hour.Ccp-Rev
BURK.Stage.Inst.1Hour.0.Ccp-Rev
BURK.Flow.Inst.1Hour.0.Ccp-Rev
BURK.Volt-Battery Load.Inst.1Hour.0.Ccp-Rev

                            

All information presented herein is the property of the government of the United States of America and may be revised or deleted at any time without prior notice. Dissemination of this information without the expressed written consent of the Public Affairs Office, Tulsa District U.S. Army Corps of Engineers is strictly prohibited. These data are gathered electronically and, as presented, have NOT undergone any form of quality control. These data are NOT guaranteed to be valid or correct.